Childwall, United Kingdom
Current Conditions -  °F | °C
As of 1:20 PM on Wednesday 22 Oct 2014 (Local Time) from EGGP Reporting Station
Rain Showers Rain Showers  
Wind Chill: 52°   Ceiling: 3900
Heat Index: 52°   Visibility: 5mi
Dew Point: 48°   Wind: 12mph
Humidity: 88%   Direction: 260°W
Pressure: 30.21"   Gusts: NA
Location:  53.39°N, 2.89°W
Report Text: EGGP 221220Z 26010KT 8000 SHRA FEW021 BKN039 11/09 Q1023
Loading
Personal Weather Stations






























Interactive Weather Map New forecast layout! Learn more

10-Day Weather Forecast

Advertisements
Track Severe Weather on mobile